sensor_id;sensor_type;location;lat;lon;timestamp;pressure;altitude;pressure_sealevel;temperature;humidity
13068;BME280;6600;51.362;6.686;2023-03-14T00:01:55;98683.06;;;12.52;94.89
13068;BME280;6600;51.362;6.686;2023-03-14T00:04:21;98679.06;;;12.54;94.98
13068;BME280;6600;51.362;6.686;2023-03-14T00:06:46;98669.94;;;12.50;94.76
13068;BME280;6600;51.362;6.686;2023-03-14T00:09:12;98660.25;;;12.54;94.77
13068;BME280;6600;51.362;6.686;2023-03-14T00:11:38;98656.47;;;12.55;94.39
13068;BME280;6600;51.362;6.686;2023-03-14T00:14:03;98643.59;;;12.52;94.97
13068;BME280;6600;51.362;6.686;2023-03-14T00:16:28;98643.56;;;12.57;94.60
13068;BME280;6600;51.362;6.686;2023-03-14T00:18:54;98635.22;;;12.59;94.60
13068;BME280;6600;51.362;6.686;2023-03-14T00:21:19;98650.28;;;12.55;94.67
13068;BME280;6600;51.362;6.686;2023-03-14T00:23:45;98656.38;;;12.65;94.33
13068;BME280;6600;51.362;6.686;2023-03-14T00:26:16;98669.81;;;12.71;94.68
13068;BME280;6600;51.362;6.686;2023-03-14T00:28:42;98685.50;;;12.53;98.01
13068;BME280;6600;51.362;6.686;2023-03-14T00:31:10;98695.25;;;12.34;99.83
13068;BME280;6600;51.362;6.686;2023-03-14T00:33:36;98683.31;;;12.01;100.00
13068;BME280;6600;51.362;6.686;2023-03-14T00:36:07;98679.88;;;11.86;100.00
13068;BME280;6600;51.362;6.686;2023-03-14T00:38:34;98701.34;;;11.65;100.00
13068;BME280;6600;51.362;6.686;2023-03-14T00:41:04;98696.00;;;11.55;100.00
13068;BME280;6600;51.362;6.686;2023-03-14T00:43:30;98700.84;;;11.38;100.00
13068;BME280;6600;51.362;6.686;2023-03-14T00:45:55;98700.31;;;11.21;100.00
13068;BME280;6600;51.362;6.686;2023-03-14T00:48:22;98705.13;;;11.24;100.00
13068;BME280;6600;51.362;6.686;2023-03-14T00:50:47;98690.97;;;11.13;100.00
13068;BME280;6600;51.362;6.686;2023-03-14T00:53:12;98688.28;;;11.13;100.00
13068;BME280;6600;51.362;6.686;2023-03-14T00:55:40;98688.00;;;11.05;100.00
13068;BME280;6600;51.362;6.686;2023-03-14T00:58:07;98691.75;;;10.99;100.00
13068;BME280;6600;51.362;6.686;2023-03-14T01:00:33;98692.56;;;10.99;100.00
13068;BME280;6600;51.362;6.686;2023-03-14T01:02:58;98695.22;;;11.04;100.00
13068;BME280;6600;51.362;6.686;2023-03-14T01:05:24;98686.91;;;10.91;100.00
13068;BME280;6600;51.362;6.686;2023-03-14T01:07:49;98688.53;;;10.92;100.00
13068;BME280;6600;51.362;6.686;2023-03-14T01:10:15;98688.53;;;11.02;100.00
13068;BME280;6600;51.362;6.686;2023-03-14T01:12:41;98693.09;;;11.06;100.00
13068;BME280;6600;51.362;6.686;2023-03-14T01:15:07;98696.03;;;11.05;100.00
13068;BME280;6600;51.362;6.686;2023-03-14T01:17:33;98692.81;;;11.03;100.00
13068;BME280;6600;51.362;6.686;2023-03-14T01:19:59;98682.34;;;10.96;100.00
13068;BME280;6600;51.362;6.686;2023-03-14T01:22:24;98674.06;;;10.98;100.00
13068;BME280;6600;51.362;6.686;2023-03-14T01:24:49;98679.94;;;10.95;100.00
13068;BME280;6600;51.362;6.686;2023-03-14T01:27:15;98684.25;;;10.86;100.00
13068;BME280;6600;51.362;6.686;2023-03-14T01:29:40;98680.50;;;10.92;100.00
13068;BME280;6600;51.362;6.686;2023-03-14T01:32:05;98680.75;;;10.85;100.00
13068;BME280;6600;51.362;6.686;2023-03-14T01:34:31;98679.13;;;10.84;100.00
13068;BME280;6600;51.362;6.686;2023-03-14T01:36:56;98673.25;;;10.82;100.00
13068;BME280;6600;51.362;6.686;2023-03-14T01:39:21;98662.25;;;10.74;100.00
13068;BME280;6600;51.362;6.686;2023-03-14T01:41:47;98659.31;;;10.75;100.00
13068;BME280;6600;51.362;6.686;2023-03-14T01:44:12;98664.41;;;10.72;100.00
13068;BME280;6600;51.362;6.686;2023-03-14T01:46:41;98656.34;;;10.77;100.00
13068;BME280;6600;51.362;6.686;2023-03-14T01:56:54;98662.78;;;10.81;100.00
13068;BME280;6600;51.362;6.686;2023-03-14T01:59:21;98674.03;;;10.88;100.00
13068;BME280;6600;51.362;6.686;2023-03-14T02:01:47;98669.78;;;10.92;100.00
13068;BME280;6600;51.362;6.686;2023-03-14T02:04:16;98664.94;;;10.89;100.00
13068;BME280;6600;51.362;6.686;2023-03-14T02:09:30;98641.63;;;10.94;100.00
13068;BME280;6600;51.362;6.686;2023-03-14T02:11:55;98653.97;;;10.95;100.00
13068;BME280;6600;51.362;6.686;2023-03-14T02:14:32;98652.09;;;10.96;100.00
13068;BME280;6600;51.362;6.686;2023-03-14T02:16:58;98656.91;;;10.94;100.00
13068;BME280;6600;51.362;6.686;2023-03-14T02:19:44;98646.72;;;11.01;100.00
13068;BME280;6600;51.362;6.686;2023-03-14T02:22:15;98651.00;;;11.02;100.00
13068;BME280;6600;51.362;6.686;2023-03-14T02:27:26;98647.78;;;10.95;100.00
13068;BME280;6600;51.362;6.686;2023-03-14T02:29:58;98666.56;;;10.95;100.00
13068;BME280;6600;51.362;6.686;2023-03-14T02:32:26;98670.31;;;10.99;100.00
13068;BME280;6600;51.362;6.686;2023-03-14T02:34:55;98672.97;;;11.04;100.00
13068;BME280;6600;51.362;6.686;2023-03-14T02:37:25;98665.50;;;11.06;100.00
13068;BME280;6600;51.362;6.686;2023-03-14T02:39:53;98661.19;;;11.00;100.00
13068;BME280;6600;51.362;6.686;2023-03-14T02:42:18;98669.78;;;11.02;100.00
13068;BME280;6600;51.362;6.686;2023-03-14T02:47:37;98664.94;;;10.99;100.00
13068;BME280;6600;51.362;6.686;2023-03-14T02:50:13;98654.50;;;11.02;100.00
13068;BME280;6600;51.362;6.686;2023-03-14T02:52:39;98654.78;;;11.06;100.00
13068;BME280;6600;51.362;6.686;2023-03-14T02:55:05;98654.50;;;11.02;100.00
13068;BME280;6600;51.362;6.686;2023-03-14T02:57:30;98664.41;;;11.02;100.00
13068;BME280;6600;51.362;6.686;2023-03-14T02:59:59;98659.31;;;11.00;100.00
13068;BME280;6600;51.362;6.686;2023-03-14T03:02:25;98656.38;;;11.02;100.00
13068;BME280;6600;51.362;6.686;2023-03-14T03:04:50;98645.63;;;10.97;100.00
13068;BME280;6600;51.362;6.686;2023-03-14T03:07:16;98643.50;;;10.94;100.00
13068;BME280;6600;51.362;6.686;2023-03-14T03:09:41;98633.06;;;10.92;100.00
13068;BME280;6600;51.362;6.686;2023-03-14T03:12:06;98639.47;;;10.96;100.00
13068;BME280;6600;51.362;6.686;2023-03-14T03:14:32;98632.25;;;10.92;100.00
13068;BME280;6600;51.362;6.686;2023-03-14T03:16:57;98626.09;;;10.91;100.00
13068;BME280;6600;51.362;6.686;2023-03-14T03:19:22;98630.09;;;10.84;100.00
13068;BME280;6600;51.362;6.686;2023-03-14T03:21:48;98637.06;;;10.85;100.00
13068;BME280;6600;51.362;6.686;2023-03-14T03:24:13;98635.19;;;10.90;100.00
13068;BME280;6600;51.362;6.686;2023-03-14T03:26:39;98632.78;;;10.89;100.00
13068;BME280;6600;51.362;6.686;2023-03-14T03:29:04;98628.47;;;10.83;100.00
13068;BME280;6600;51.362;6.686;2023-03-14T03:31:29;98635.47;;;10.89;100.00
13068;BME280;6600;51.362;6.686;2023-03-14T03:33:56;98637.06;;;10.95;100.00
13068;BME280;6600;51.362;6.686;2023-03-14T03:36:23;98625.56;;;10.94;100.00
13068;BME280;6600;51.362;6.686;2023-03-14T03:38:49;98625.00;;;10.87;100.00
13068;BME280;6600;51.362;6.686;2023-03-14T03:41:15;98627.16;;;10.75;100.00
13068;BME280;6600;51.362;6.686;2023-03-14T03:43:40;98625.81;;;10.68;100.00
13068;BME280;6600;51.362;6.686;2023-03-14T03:46:06;98618.84;;;10.67;100.00
13068;BME280;6600;51.362;6.686;2023-03-14T03:48:32;98614.56;;;10.71;100.00
13068;BME280;6600;51.362;6.686;2023-03-14T03:50:57;98617.50;;;10.64;100.00
13068;BME280;6600;51.362;6.686;2023-03-14T03:53:22;98610.28;;;10.64;100.00
13068;BME280;6600;51.362;6.686;2023-03-14T03:55:48;98611.63;;;10.67;100.00
13068;BME280;6600;51.362;6.686;2023-03-14T03:58:13;98607.59;;;10.70;100.00
13068;BME280;6600;51.362;6.686;2023-03-14T04:00:38;98614.03;;;10.74;100.00
13068;BME280;6600;51.362;6.686;2023-03-14T04:03:04;98607.59;;;10.70;100.00
13068;BME280;6600;51.362;6.686;2023-03-14T04:05:30;98624.19;;;10.77;100.00
13068;BME280;6600;51.362;6.686;2023-03-14T04:07:55;98622.06;;;10.63;100.00
13068;BME280;6600;51.362;6.686;2023-03-14T04:10:20;98617.22;;;10.55;100.00
13068;BME280;6600;51.362;6.686;2023-03-14T04:12:45;98615.09;;;10.47;100.00
13068;BME280;6600;51.362;6.686;2023-03-14T04:15:11;98620.16;;;10.44;100.00
13068;BME280;6600;51.362;6.686;2023-03-14T04:17:36;98608.06;;;10.31;100.00
13068;BME280;6600;51.362;6.686;2023-03-14T04:20:02;98609.69;;;10.32;100.00
13068;BME280;6600;51.362;6.686;2023-03-14T04:22:28;98608.06;;;10.21;100.00
13068;BME280;6600;51.362;6.686;2023-03-14T04:24:53;98605.38;;;10.21;100.00
13068;BME280;6600;51.362;6.686;2023-03-14T04:27:19;98602.19;;;10.19;100.00
13068;BME280;6600;51.362;6.686;2023-03-14T04:29:44;98607.50;;;10.14;100.00
13068;BME280;6600;51.362;6.686;2023-03-14T04:32:10;98608.06;;;10.16;100.00
13068;BME280;6600;51.362;6.686;2023-03-14T04:34:35;98600.75;;;10.01;100.00
13068;BME280;6600;51.362;6.686;2023-03-14T04:37:00;98601.31;;;10.08;100.00
13068;BME280;6600;51.362;6.686;2023-03-14T04:39:26;98605.03;;;10.07;100.00
13068;BME280;6600;51.362;6.686;2023-03-14T04:41:51;98592.47;;;10.03;100.00
13068;BME280;6600;51.362;6.686;2023-03-14T04:44:17;98590.31;;;9.95;100.00
13068;BME280;6600;51.362;6.686;2023-03-14T04:46:42;98586.00;;;9.89;100.00
13068;BME280;6600;51.362;6.686;2023-03-14T04:49:08;98592.16;;;9.89;100.00
13068;BME280;6600;51.362;6.686;2023-03-14T04:51:33;98587.06;;;9.88;100.00
13068;BME280;6600;51.362;6.686;2023-03-14T04:53:59;98579.28;;;9.81;100.00
13068;BME280;6600;51.362;6.686;2023-03-14T04:56:24;98574.22;;;9.85;100.00
13068;BME280;6600;51.362;6.686;2023-03-14T04:58:49;98570.97;;;9.83;100.00
13068;BME280;6600;51.362;6.686;2023-03-14T05:01:15;98562.97;;;9.78;100.00
13068;BME280;6600;51.362;6.686;2023-03-14T05:03:40;98558.13;;;9.75;100.00
13068;BME280;6600;51.362;6.686;2023-03-14T05:06:05;98559.72;;;9.76;100.00
13068;BME280;6600;51.362;6.686;2023-03-14T05:08:31;98557.59;;;9.78;100.00
13068;BME280;6600;51.362;6.686;2023-03-14T05:10:57;98556.00;;;9.77;100.00
13068;BME280;6600;51.362;6.686;2023-03-14T05:13:23;98551.19;;;9.74;100.00
13068;BME280;6600;51.362;6.686;2023-03-14T05:15:48;98551.66;;;9.65;100.00
13068;BME280;6600;51.362;6.686;2023-03-14T05:18:15;98552.75;;;9.64;100.00
13068;BME280;6600;51.362;6.686;2023-03-14T05:20:41;98554.09;;;9.67;100.00
13068;BME280;6600;51.362;6.686;2023-03-14T05:23:08;98549.56;;;9.73;100.00
13068;BME280;6600;51.362;6.686;2023-03-14T05:25:33;98546.09;;;9.77;100.00
13068;BME280;6600;51.362;6.686;2023-03-14T05:27:59;98536.22;;;9.78;100.00
13068;BME280;6600;51.362;6.686;2023-03-14T05:30:24;98526.03;;;9.75;100.00
13068;BME280;6600;51.362;6.686;2023-03-14T05:32:49;98522.56;;;9.79;100.00
13068;BME280;6600;51.362;6.686;2023-03-14T05:35:15;98520.16;;;9.78;100.00
13068;BME280;6600;51.362;6.686;2023-03-14T05:37:40;98519.09;;;9.84;100.00
13068;BME280;6600;51.362;6.686;2023-03-14T05:40:06;98523.41;;;9.90;100.00
13068;BME280;6600;51.362;6.686;2023-03-14T05:42:32;98526.31;;;9.83;100.00
13068;BME280;6600;51.362;6.686;2023-03-14T05:44:58;98524.22;;;9.85;100.00
13068;BME280;6600;51.362;6.686;2023-03-14T05:47:24;98521.78;;;9.84;100.00
13068;BME280;6600;51.362;6.686;2023-03-14T05:49:49;98525.78;;;9.81;100.00
13068;BME280;6600;51.362;6.686;2023-03-14T05:52:14;98525.25;;;9.84;100.00
13068;BME280;6600;51.362;6.686;2023-03-14T05:54:40;98512.97;;;9.93;100.00
13068;BME280;6600;51.362;6.686;2023-03-14T05:57:06;98520.72;;;9.85;100.00
13068;BME280;6600;51.362;6.686;2023-03-14T05:59:31;98517.53;;;9.93;100.00
13068;BME280;6600;51.362;6.686;2023-03-14T06:01:56;98513.25;;;9.97;100.00
13068;BME280;6600;51.362;6.686;2023-03-14T06:04:22;98517.56;;;10.03;100.00
13068;BME280;6600;51.362;6.686;2023-03-14T06:06:47;98512.22;;;10.13;100.00
13068;BME280;6600;51.362;6.686;2023-03-14T06:09:12;98514.34;;;10.11;100.00
13068;BME280;6600;51.362;6.686;2023-03-14T06:11:38;98509.56;;;10.18;100.00
13068;BME280;6600;51.362;6.686;2023-03-14T06:14:03;98511.19;;;10.19;100.00
13068;BME280;6600;51.362;6.686;2023-03-14T06:16:28;98517.63;;;10.23;100.00
13068;BME280;6600;51.362;6.686;2023-03-14T06:18:53;98526.16;;;10.25;100.00
13068;BME280;6600;51.362;6.686;2023-03-14T06:21:19;98525.09;;;10.31;100.00
13068;BME280;6600;51.362;6.686;2023-03-14T06:23:45;98524.03;;;10.32;100.00
13068;BME280;6600;51.362;6.686;2023-03-14T06:26:10;98517.09;;;10.36;100.00
13068;BME280;6600;51.362;6.686;2023-03-14T06:28:37;98517.63;;;10.43;100.00
13068;BME280;6600;51.362;6.686;2023-03-14T06:31:03;98519.25;;;10.44;100.00
13068;BME280;6600;51.362;6.686;2023-03-14T06:33:28;98519.25;;;10.44;100.00
13068;BME280;6600;51.362;6.686;2023-03-14T06:35:54;98522.97;;;10.48;100.00
13068;BME280;6600;51.362;6.686;2023-03-14T06:38:19;98517.88;;;10.47;100.00
13068;BME280;6600;51.362;6.686;2023-03-14T06:40:44;98526.16;;;10.55;100.00
13068;BME280;6600;51.362;6.686;2023-03-14T06:43:10;98525.63;;;10.58;100.00
13068;BME280;6600;51.362;6.686;2023-03-14T06:45:36;98523.78;;;10.64;100.00
13068;BME280;6600;51.362;6.686;2023-03-14T06:48:01;98525.91;;;10.62;100.00
13068;BME280;6600;51.362;6.686;2023-03-14T06:50:26;98525.66;;;10.69;100.00
13068;BME280;6600;51.362;6.686;2023-03-14T06:52:52;98525.09;;;10.67;100.00
13068;BME280;6600;51.362;6.686;2023-03-14T06:55:17;98529.41;;;10.68;100.00
13068;BME280;6600;51.362;6.686;2023-03-14T06:57:43;98533.13;;;10.67;100.00
13068;BME280;6600;51.362;6.686;2023-03-14T07:00:10;98531.00;;;10.74;100.00
13068;BME280;6600;51.362;6.686;2023-03-14T07:02:35;98535.28;;;10.70;100.00
13068;BME280;6600;51.362;6.686;2023-03-14T07:05:01;98524.56;;;10.75;100.00
13068;BME280;6600;51.362;6.686;2023-03-14T07:07:28;98530.72;;;10.75;100.00
13068;BME280;6600;51.362;6.686;2023-03-14T07:09:53;98529.91;;;10.80;100.00
13068;BME280;6600;51.362;6.686;2023-03-14T07:12:19;98539.03;;;10.74;100.00
13068;BME280;6600;51.362;6.686;2023-03-14T07:14:44;98538.47;;;10.87;100.00
13068;BME280;6600;51.362;6.686;2023-03-14T07:17:09;98534.19;;;10.91;100.00
13068;BME280;6600;51.362;6.686;2023-03-14T07:19:35;98536.31;;;10.94;100.00
13068;BME280;6600;51.362;6.686;2023-03-14T07:22:00;98545.97;;;10.95;100.00
13068;BME280;6600;51.362;6.686;2023-03-14T07:24:26;98542.22;;;10.91;100.00
13068;BME280;6600;51.362;6.686;2023-03-14T07:26:51;98550.81;;;10.88;100.00
13068;BME280;6600;51.362;6.686;2023-03-14T07:29:16;98543.56;;;10.93;100.00
13068;BME280;6600;51.362;6.686;2023-03-14T07:31:42;98552.38;;;11.04;100.00
13068;BME280;6600;51.362;6.686;2023-03-14T07:34:07;98556.16;;;10.98;100.00
13068;BME280;6600;51.362;6.686;2023-03-14T07:36:32;98550.25;;;11.01;100.00
13068;BME280;6600;51.362;6.686;2023-03-14T07:38:58;98548.88;;;11.03;100.00
13068;BME280;6600;51.362;6.686;2023-03-14T07:41:23;98554.78;;;11.00;100.00
13068;BME280;6600;51.362;6.686;2023-03-14T07:43:49;98564.72;;;10.95;100.00
13068;BME280;6600;51.362;6.686;2023-03-14T07:46:15;98567.41;;;10.90;100.00
13068;BME280;6600;51.362;6.686;2023-03-14T07:48:40;98558.56;;;10.99;100.00
13068;BME280;6600;51.362;6.686;2023-03-14T07:51:06;98561.50;;;11.08;100.00
13068;BME280;6600;51.362;6.686;2023-03-14T07:53:32;98564.19;;;11.13;100.00
13068;BME280;6600;51.362;6.686;2023-03-14T07:55:57;98577.03;;;11.11;100.00
13068;BME280;6600;51.362;6.686;2023-03-14T07:58:22;98574.06;;;11.18;100.00
13068;BME280;6600;51.362;6.686;2023-03-14T08:00:48;98585.59;;;11.23;100.00
13068;BME280;6600;51.362;6.686;2023-03-14T08:03:14;98581.28;;;11.17;100.00
13068;BME280;6600;51.362;6.686;2023-03-14T08:05:39;98588.00;;;11.25;100.00
13068;BME280;6600;51.362;6.686;2023-03-14T08:08:05;98585.06;;;11.26;100.00
13068;BME280;6600;51.362;6.686;2023-03-14T08:10:31;98580.22;;;11.33;100.00
13068;BME280;6600;51.362;6.686;2023-03-14T08:12:59;98571.06;;;11.34;100.00
13068;BME280;6600;51.362;6.686;2023-03-14T08:15:26;98578.59;;;11.32;100.00
13068;BME280;6600;51.362;6.686;2023-03-14T08:17:52;98575.09;;;11.37;100.00
13068;BME280;6600;51.362;6.686;2023-03-14T08:20:22;98578.59;;;11.37;100.00
13068;BME280;6600;51.362;6.686;2023-03-14T08:22:48;98580.19;;;11.43;100.00
13068;BME280;6600;51.362;6.686;2023-03-14T08:25:13;98570.00;;;11.35;100.00
13068;BME280;6600;51.362;6.686;2023-03-14T08:27:39;98580.19;;;11.38;100.00
13068;BME280;6600;51.362;6.686;2023-03-14T08:30:13;98580.75;;;11.30;100.00
13068;BME280;6600;51.362;6.686;2023-03-14T08:32:39;98577.81;;;11.27;100.00
13068;BME280;6600;51.362;6.686;2023-03-14T08:35:05;98591.47;;;11.30;100.00
13068;BME280;6600;51.362;6.686;2023-03-14T08:37:32;98596.88;;;11.20;100.00
13068;BME280;6600;51.362;6.686;2023-03-14T08:39:58;98603.31;;;11.09;100.00
13068;BME280;6600;51.362;6.686;2023-03-14T08:42:24;98594.47;;;11.08;100.00
13068;BME280;6600;51.362;6.686;2023-03-14T08:44:50;98596.34;;;11.03;100.00
13068;BME280;6600;51.362;6.686;2023-03-14T08:47:16;98601.16;;;11.06;100.00
13068;BME280;6600;51.362;6.686;2023-03-14T08:49:41;98607.59;;;11.10;100.00
13068;BME280;6600;51.362;6.686;2023-03-14T08:52:07;98613.47;;;10.97;100.00
13068;BME280;6600;51.362;6.686;2023-03-14T08:54:32;98610.28;;;10.90;100.00
13068;BME280;6600;51.362;6.686;2023-03-14T08:56:58;98626.34;;;10.85;100.00
13068;BME280;6600;51.362;6.686;2023-03-14T08:59:23;98626.91;;;11.02;100.00
13068;BME280;6600;51.362;6.686;2023-03-14T09:01:49;98636.00;;;11.06;100.00
13068;BME280;6600;51.362;6.686;2023-03-14T09:04:14;98637.06;;;11.15;100.00
13068;BME280;6600;51.362;6.686;2023-03-14T09:06:40;98647.78;;;11.05;100.00
13068;BME280;6600;51.362;6.686;2023-03-14T09:09:05;98704.59;;;11.02;100.00
13068;BME280;6600;51.362;6.686;2023-03-14T09:11:30;98708.56;;;10.64;100.00
13068;BME280;6600;51.362;6.686;2023-03-14T09:13:56;98707.22;;;10.51;100.00
13068;BME280;6600;51.362;6.686;2023-03-14T09:16:21;98724.81;;;10.37;100.00
13068;BME280;6600;51.362;6.686;2023-03-14T09:18:48;98726.63;;;10.17;100.00
13068;BME280;6600;51.362;6.686;2023-03-14T09:21:13;98740.16;;;10.05;100.00
13068;BME280;6600;51.362;6.686;2023-03-14T09:23:39;98756.16;;;9.95;100.00
13068;BME280;6600;51.362;6.686;2023-03-14T09:26:05;98772.75;;;9.92;100.00
13068;BME280;6600;51.362;6.686;2023-03-14T09:28:31;98773.19;;;9.79;100.00
13068;BME280;6600;51.362;6.686;2023-03-14T09:30:56;98784.44;;;9.81;100.00
13068;BME280;6600;51.362;6.686;2023-03-14T09:33:21;98801.97;;;9.67;100.00
13068;BME280;6600;51.362;6.686;2023-03-14T09:35:47;98808.97;;;9.73;100.00
13068;BME280;6600;51.362;6.686;2023-03-14T09:38:12;98825.22;;;9.61;100.00
13068;BME280;6600;51.362;6.686;2023-03-14T09:40:38;98832.41;;;9.60;100.00
13068;BME280;6600;51.362;6.686;2023-03-14T09:43:04;98839.72;;;9.70;100.00
13068;BME280;6600;51.362;6.686;2023-03-14T09:45:35;98852.19;;;9.59;100.00
13068;BME280;6600;51.362;6.686;2023-03-14T09:48:03;98856.50;;;9.65;100.00
13068;BME280;6600;51.362;6.686;2023-03-14T09:50:39;98867.78;;;9.68;100.00
13068;BME280;6600;51.362;6.686;2023-03-14T09:53:11;98881.19;;;9.73;100.00
13068;BME280;6600;51.362;6.686;2023-03-14T09:55:38;98878.88;;;9.54;100.00
13068;BME280;6600;51.362;6.686;2023-03-14T09:58:09;98880.66;;;9.76;100.00
13068;BME280;6600;51.362;6.686;2023-03-14T10:00:36;98886.94;;;9.59;100.00
13068;BME280;6600;51.362;6.686;2023-03-14T10:05:40;98902.97;;;9.86;100.00
13068;BME280;6600;51.362;6.686;2023-03-14T10:08:09;98914.16;;;9.83;100.00
13068;BME280;6600;51.362;6.686;2023-03-14T10:10:35;98930.53;;;9.87;100.00
13068;BME280;6600;51.362;6.686;2023-03-14T10:13:17;98930.53;;;9.87;100.00
13068;BME280;6600;51.362;6.686;2023-03-14T10:15:50;98945.56;;;9.93;100.00
13068;BME280;6600;51.362;6.686;2023-03-14T10:18:16;98959.31;;;9.75;100.00
13068;BME280;6600;51.362;6.686;2023-03-14T10:20:44;98976.91;;;9.71;100.00
13068;BME280;6600;51.362;6.686;2023-03-14T10:25:44;98996.53;;;9.54;100.00
13068;BME280;6600;51.362;6.686;2023-03-14T10:28:30;99008.72;;;9.45;100.00
13068;BME280;6600;51.362;6.686;2023-03-14T10:30:57;99018.34;;;9.46;100.00
13068;BME280;6600;51.362;6.686;2023-03-14T10:33:26;99029.47;;;9.38;100.00
13068;BME280;6600;51.362;6.686;2023-03-14T10:35:53;99054.66;;;9.04;100.00
13068;BME280;6600;51.362;6.686;2023-03-14T10:38:23;99060.88;;;8.54;100.00
13068;BME280;6600;51.362;6.686;2023-03-14T10:40:51;99072.97;;;8.45;100.00
13068;BME280;6600;51.362;6.686;2023-03-14T10:43:49;99084.81;;;8.49;100.00
13068;BME280;6600;51.362;6.686;2023-03-14T10:46:16;99107.75;;;8.34;100.00
13068;BME280;6600;51.362;6.686;2023-03-14T10:48:43;99113.22;;;8.27;100.00
13068;BME280;6600;51.362;6.686;2023-03-14T10:51:18;99125.91;;;8.20;100.00
13068;BME280;6600;51.362;6.686;2023-03-14T10:53:49;99142.47;;;8.22;100.00
13068;BME280;6600;51.362;6.686;2023-03-14T10:56:20;99157.19;;;8.25;100.00
13068;BME280;6600;51.362;6.686;2023-03-14T10:58:48;99164.84;;;7.93;100.00
13068;BME280;6600;51.362;6.686;2023-03-14T11:07:06;99203.59;;;7.60;100.00
13068;BME280;6600;51.362;6.686;2023-03-14T11:09:48;99225.50;;;7.62;100.00
13068;BME280;6600;51.362;6.686;2023-03-14T11:15:11;99238.59;;;7.76;100.00
13068;BME280;6600;51.362;6.686;2023-03-14T11:18:00;99265.50;;;7.86;100.00
13068;BME280;6600;51.362;6.686;2023-03-14T11:20:41;99271.63;;;7.98;100.00
13068;BME280;6600;51.362;6.686;2023-03-14T11:23:14;99279.88;;;7.85;100.00
13068;BME280;6600;51.362;6.686;2023-03-14T11:25:52;99296.19;;;7.77;100.00
13068;BME280;6600;51.362;6.686;2023-03-14T11:30:55;99305.25;;;7.87;100.00
13068;BME280;6600;51.362;6.686;2023-03-14T11:33:37;99314.75;;;7.83;100.00
13068;BME280;6600;51.362;6.686;2023-03-14T11:36:15;99315.69;;;7.89;100.00
13068;BME280;6600;51.362;6.686;2023-03-14T11:38:50;99324.50;;;8.01;100.00
13068;BME280;6600;51.362;6.686;2023-03-14T11:41:23;99329.25;;;7.99;99.29
13068;BME280;6600;51.362;6.686;2023-03-14T11:43:58;99333.78;;;7.98;99.46
13068;BME280;6600;51.362;6.686;2023-03-14T11:46:33;99350.81;;;7.86;99.55
13068;BME280;6600;51.362;6.686;2023-03-14T11:49:11;99357.91;;;7.92;99.94
13068;BME280;6600;51.362;6.686;2023-03-14T11:51:40;99354.50;;;7.61;100.00
13068;BME280;6600;51.362;6.686;2023-03-14T11:57:19;99383.53;;;7.93;100.00
13068;BME280;6600;51.362;6.686;2023-03-14T12:02:55;99401.59;;;7.91;97.96
13068;BME280;6600;51.362;6.686;2023-03-14T12:05:45;99400.25;;;8.23;97.68
13068;BME280;6600;51.362;6.686;2023-03-14T12:08:43;99409.44;;;8.39;95.15
13068;BME280;6600;51.362;6.686;2023-03-14T12:14:36;99431.56;;;8.62;92.05
13068;BME280;6600;51.362;6.686;2023-03-14T12:17:21;99435.06;;;8.75;92.19
13068;BME280;6600;51.362;6.686;2023-03-14T12:19:48;99443.28;;;8.85;92.24
13068;BME280;6600;51.362;6.686;2023-03-14T12:22:27;99455.91;;;9.01;90.87
13068;BME280;6600;51.362;6.686;2023-03-14T12:25:01;99466.88;;;8.65;87.52
13068;BME280;6600;51.362;6.686;2023-03-14T12:27:41;99480.34;;;8.70;87.86
13068;BME280;6600;51.362;6.686;2023-03-14T12:30:18;99482.19;;;8.46;88.32
13068;BME280;6600;51.362;6.686;2023-03-14T12:35:41;99506.44;;;8.33;91.82
13068;BME280;6600;51.362;6.686;2023-03-14T12:38:14;99521.63;;;7.91;93.89
13068;BME280;6600;51.362;6.686;2023-03-14T12:43:30;99536.31;;;7.82;98.57
13068;BME280;6600;51.362;6.686;2023-03-14T12:48:33;99553.28;;;7.69;99.17
13068;BME280;6600;51.362;6.686;2023-03-14T12:51:02;99567.97;;;7.78;98.27
13068;BME280;6600;51.362;6.686;2023-03-14T12:56:38;99588.38;;;7.84;96.40
13068;BME280;6600;51.362;6.686;2023-03-14T12:59:28;99591.69;;;7.98;96.88
13068;BME280;6600;51.362;6.686;2023-03-14T13:02:00;99597.41;;;7.83;95.77
13068;BME280;6600;51.362;6.686;2023-03-14T13:04:49;99606.06;;;7.97;96.31
13068;BME280;6600;51.362;6.686;2023-03-14T13:10:15;99625.06;;;8.37;95.28
13068;BME280;6600;51.362;6.686;2023-03-14T13:12:51;99629.94;;;8.40;94.70
13068;BME280;6600;51.362;6.686;2023-03-14T13:15:24;99633.28;;;8.35;93.74
13068;BME280;6600;51.362;6.686;2023-03-14T13:17:53;99638.41;;;8.48;94.58
13068;BME280;6600;51.362;6.686;2023-03-14T13:22:52;99659.72;;;7.89;95.62
13068;BME280;6600;51.362;6.686;2023-03-14T13:25:17;99670.22;;;7.29;95.59
13068;BME280;6600;51.362;6.686;2023-03-14T13:27:46;99687.59;;;7.07;97.44
13068;BME280;6600;51.362;6.686;2023-03-14T13:30:24;99683.81;;;7.21;99.25
13068;BME280;6600;51.362;6.686;2023-03-14T13:32:52;99689.34;;;7.44;100.00
13068;BME280;6600;51.362;6.686;2023-03-14T13:35:24;99690.50;;;7.30;100.00
13068;BME280;6600;51.362;6.686;2023-03-14T13:37:56;99688.09;;;7.47;100.00
13068;BME280;6600;51.362;6.686;2023-03-14T13:40:29;99694.84;;;7.68;100.00
13068;BME280;6600;51.362;6.686;2023-03-14T13:45:51;99695.81;;;7.91;97.81
13068;BME280;6600;51.362;6.686;2023-03-14T13:48:17;99710.38;;;8.25;97.77
13068;BME280;6600;51.362;6.686;2023-03-14T13:50:55;99716.00;;;8.17;96.13
13068;BME280;6600;51.362;6.686;2023-03-14T13:53:22;99714.97;;;8.36;95.55
13068;BME280;6600;51.362;6.686;2023-03-14T13:55:47;99718.34;;;8.61;95.32
13068;BME280;6600;51.362;6.686;2023-03-14T13:58:24;99730.53;;;8.69;94.35
13068;BME280;6600;51.362;6.686;2023-03-14T14:03:42;99730.53;;;8.39;90.82
13068;BME280;6600;51.362;6.686;2023-03-14T14:06:16;99736.44;;;8.59;90.75
13068;BME280;6600;51.362;6.686;2023-03-14T14:08:45;99743.41;;;8.60;90.14
13068;BME280;6600;51.362;6.686;2023-03-14T14:11:19;99753.72;;;8.87;88.34
13068;BME280;6600;51.362;6.686;2023-03-14T14:13:46;99762.59;;;8.99;85.47
13068;BME280;6600;51.362;6.686;2023-03-14T14:16:12;99753.66;;;9.05;79.12